createdAt,value
2022-12-16T00:03:02.750Z,-3.14
2022-12-16T00:08:06.491Z,-3.14
2022-12-16T00:13:10.775Z,-3.12
2022-12-16T00:18:14.443Z,-3.16
2022-12-16T00:23:18.064Z,-3.16
2022-12-16T00:28:23.332Z,-3.09
2022-12-16T00:33:27.858Z,-3.10
2022-12-16T00:38:31.270Z,-3.13
2022-12-16T00:43:34.910Z,-3.15
2022-12-16T00:48:38.506Z,-3.18
2022-12-16T00:53:41.919Z,-3.13
2022-12-16T00:58:45.332Z,-3.05
2022-12-16T01:03:48.928Z,-3.03
2022-12-16T01:08:52.467Z,-3.08
2022-12-16T01:13:58.234Z,-3.15
2022-12-16T01:19:01.852Z,-3.07
2022-12-16T01:24:05.676Z,-2.99
2022-12-16T01:29:08.990Z,-3.04
2022-12-16T01:34:12.401Z,-3.13
2022-12-16T01:39:15.707Z,-3.19
2022-12-16T01:44:28.134Z,-3.21
2022-12-16T01:49:42.093Z,-3.20
2022-12-16T01:54:56.053Z,-3.18
2022-12-16T02:00:01.723Z,-3.19
2022-12-16T02:05:20.809Z,-3.16
2022-12-16T02:10:43.671Z,-3.17
2022-12-16T02:16:05.720Z,-3.24
2022-12-16T02:21:18.245Z,-3.27
2022-12-16T02:27:19.523Z,-3.25
2022-12-16T02:32:22.829Z,-3.30
2022-12-16T02:37:43.340Z,-3.32
2022-12-16T02:42:54.025Z,-3.27
2022-12-16T02:47:58.665Z,-3.24
2022-12-16T02:53:03.204Z,-3.26
2022-12-16T02:58:28.122Z,-3.31
2022-12-16T03:03:45.391Z,-3.28
2022-12-16T03:08:54.202Z,-3.20
2022-12-16T03:13:59.512Z,-3.14
2022-12-16T03:19:08.533Z,-3.16
2022-12-16T03:24:14.880Z,-3.13
2022-12-16T03:29:28.026Z,-3.14
2022-12-16T03:34:45.569Z,-3.18
2022-12-16T03:39:53.693Z,-3.24
2022-12-16T03:44:57.619Z,-3.23
2022-12-16T03:50:01.036Z,-3.18
2022-12-16T03:55:04.913Z,-3.20
2022-12-16T04:00:09.624Z,-3.21
2022-12-16T04:05:13.726Z,-3.25
2022-12-16T04:10:17.346Z,-3.28
2022-12-16T04:15:40.174Z,-3.26
2022-12-16T04:21:06.772Z,-3.20
2022-12-16T04:26:10.798Z,-3.15
2022-12-16T04:31:14.194Z,-3.11
2022-12-16T04:36:36.567Z,-3.09
2022-12-16T04:41:58.517Z,-3.12
2022-12-16T04:47:20.669Z,-3.10
2022-12-16T04:52:42.922Z,-3.07
2022-12-16T04:58:12.964Z,-3.13
2022-12-16T05:03:35.621Z,-3.11
2022-12-16T05:08:57.981Z,-3.07
2022-12-16T05:14:20.337Z,-3.06
2022-12-16T05:19:42.697Z,-3.06
2022-12-16T05:25:05.052Z,-3.08
2022-12-16T05:30:33.374Z,-3.07
2022-12-16T05:35:56.118Z,-3.06
2022-12-16T05:41:18.574Z,-3.00
2022-12-16T05:46:41.072Z,-3.09
2022-12-16T05:52:03.202Z,-3.22
2022-12-16T05:57:25.752Z,-3.41
2022-12-16T06:02:48.401Z,-3.59
2022-12-16T06:08:12.107Z,-3.58
2022-12-16T06:13:34.663Z,-3.78
2022-12-16T06:18:57.020Z,-3.94
2022-12-16T06:24:19.083Z,-3.82
2022-12-16T06:29:41.326Z,-3.72
2022-12-16T06:35:03.586Z,-3.67
2022-12-16T06:40:26.349Z,-3.83
2022-12-16T06:45:48.650Z,-4.02
2022-12-16T06:51:10.652Z,-4.01
2022-12-16T06:56:32.905Z,-3.90
2022-12-16T07:01:55.358Z,-3.91
2022-12-16T07:07:17.965Z,-3.96
2022-12-16T07:12:40.284Z,-4.07
2022-12-16T07:18:04.486Z,-4.08
2022-12-16T07:23:26.847Z,-4.17
2022-12-16T07:28:49.200Z,-4.09
2022-12-16T07:34:11.356Z,-3.92
2022-12-16T07:39:33.402Z,-3.78
2022-12-16T07:44:55.760Z,-3.75
2022-12-16T07:50:17.894Z,-3.71
2022-12-16T07:55:40.064Z,-3.59
2022-12-16T08:01:07.709Z,-3.46
2022-12-16T08:06:34.781Z,-3.34
2022-12-16T08:11:59.630Z,-3.26
2022-12-16T08:17:21.780Z,-3.22
2022-12-16T08:22:44.139Z,-3.16
2022-12-16T08:28:05.978Z,-3.03
2022-12-16T08:33:28.033Z,-2.86
2022-12-16T08:38:50.390Z,-2.73
2022-12-16T08:44:13.164Z,-2.61
2022-12-16T08:49:35.575Z,-2.55
2022-12-16T08:54:57.870Z,-2.39
2022-12-16T09:00:19.717Z,-2.31
2022-12-16T09:05:42.485Z,-2.29
2022-12-16T09:11:04.840Z,-2.25
2022-12-16T09:16:27.031Z,-2.17
2022-12-16T09:21:49.248Z,-2.07
2022-12-16T09:27:11.503Z,-2.18
2022-12-16T09:32:33.963Z,-2.27
2022-12-16T09:37:55.909Z,-2.17
2022-12-16T09:43:42.638Z,-2.01
2022-12-16T09:49:34.691Z,-2.09
2022-12-16T09:55:00.634Z,-2.06
2022-12-16T10:00:26.371Z,-2.10
2022-12-16T10:06:07.362Z,-2.13
2022-12-16T10:11:55.640Z,-2.22
2022-12-16T10:17:31.606Z,-2.26
2022-12-16T10:23:10.246Z,-2.35
2022-12-16T10:28:56.774Z,-2.35
2022-12-16T10:34:19.231Z,-2.51
2022-12-16T10:39:52.900Z,-2.59
2022-12-16T10:45:20.734Z,-2.54
2022-12-16T10:50:43.207Z,-2.58
2022-12-16T10:56:37.304Z,-2.54
2022-12-16T11:01:59.711Z,-2.36
2022-12-16T11:07:36.042Z,-2.21
2022-12-16T11:12:58.088Z,-2.26
2022-12-16T11:18:24.236Z,-2.41
2022-12-16T11:23:46.181Z,-2.58
2022-12-16T11:29:32.914Z,-2.57
2022-12-16T11:34:56.395Z,-2.70
2022-12-16T11:40:21.211Z,-2.85
2022-12-16T11:45:43.565Z,-2.84
2022-12-16T11:51:17.597Z,-2.83
2022-12-16T11:56:43.386Z,-2.74
2022-12-16T12:02:13.959Z,-2.67
2022-12-16T12:07:53.337Z,-2.53
2022-12-16T12:13:42.836Z,-2.45
2022-12-16T12:19:18.194Z,-2.47
2022-12-16T12:25:07.072Z,-2.44
2022-12-16T12:30:31.074Z,-2.51
2022-12-16T12:36:24.660Z,-2.59
2022-12-16T12:42:06.163Z,-2.69
2022-12-16T12:47:30.980Z,-2.73
2022-12-16T12:53:05.632Z,-2.74
2022-12-16T12:58:30.131Z,-2.74
2022-12-16T13:04:01.806Z,-2.61
2022-12-16T13:09:46.900Z,-2.49
2022-12-16T13:15:09.151Z,-2.45
2022-12-16T13:20:53.321Z,-2.50
2022-12-16T13:26:24.381Z,-2.64
2022-12-16T13:31:49.645Z,-2.74
2022-12-16T13:37:17.844Z,-2.81
2022-12-16T13:43:09.239Z,-2.82
2022-12-16T13:49:00.678Z,-2.93
2022-12-16T13:54:26.414Z,-3.07
2022-12-16T13:59:51.230Z,-3.32
2022-12-16T14:05:13.690Z,-3.52
2022-12-16T14:10:47.516Z,-3.62
2022-12-16T14:16:25.080Z,-3.70
2022-12-16T14:22:29.574Z,-3.76
2022-12-16T14:27:53.772Z,-3.86
2022-12-16T14:33:15.823Z,-3.90
2022-12-16T14:38:46.167Z,-3.90
2022-12-16T14:44:08.526Z,-3.98
2022-12-16T14:49:43.681Z,-4.08
2022-12-16T14:55:05.632Z,-4.15
2022-12-16T15:00:27.679Z,-4.15
2022-12-16T15:05:54.034Z,-4.16
2022-12-16T15:11:19.875Z,-4.13
2022-12-16T15:16:50.365Z,-4.08
2022-12-16T15:22:12.573Z,-4.08
2022-12-16T15:27:40.560Z,-4.16
2022-12-16T15:33:11.213Z,-4.15
2022-12-16T15:38:43.193Z,-4.09
2022-12-16T15:44:08.935Z,-4.01
2022-12-16T15:49:45.521Z,-4.00
2022-12-16T15:55:13.306Z,-4.09
2022-12-16T16:00:43.875Z,-4.14
2022-12-16T16:06:05.803Z,-4.15
2022-12-16T16:11:28.269Z,-4.13
2022-12-16T16:16:50.311Z,-4.19
2022-12-16T16:22:12.566Z,-4.24
2022-12-16T16:27:35.847Z,-4.23
2022-12-16T16:32:58.108Z,-4.23
2022-12-16T16:38:20.458Z,-4.25
2022-12-16T16:43:43.325Z,-4.28
2022-12-16T16:49:05.587Z,-4.38
2022-12-16T16:54:27.543Z,-4.47
2022-12-16T16:59:49.885Z,-4.49
2022-12-16T17:05:12.445Z,-4.55
2022-12-16T17:10:35.725Z,-4.58
2022-12-16T17:15:57.942Z,-4.62
2022-12-16T17:21:20.037Z,-4.60
2022-12-16T17:26:42.796Z,-4.58
2022-12-16T17:32:04.743Z,-4.59
2022-12-16T17:37:27.103Z,-4.61
2022-12-16T17:42:49.355Z,-4.64
2022-12-16T17:48:11.303Z,-4.81
2022-12-16T17:53:34.056Z,-4.96
2022-12-16T17:58:58.372Z,-5.00
2022-12-16T18:04:20.485Z,-5.06
2022-12-16T18:09:42.576Z,-5.07
2022-12-16T18:15:04.525Z,-5.18
2022-12-16T18:20:27.496Z,-5.25
2022-12-16T18:25:49.853Z,-5.32
2022-12-16T18:31:12.062Z,-5.50
2022-12-16T18:36:34.361Z,-5.52
2022-12-16T18:42:01.751Z,-5.40
2022-12-16T18:47:24.093Z,-5.42
2022-12-16T18:52:46.348Z,-5.45
2022-12-16T18:58:42.226Z,-5.55
2022-12-16T19:03:54.210Z,-5.58
2022-12-16T19:09:16.362Z,-5.56
2022-12-16T19:14:38.831Z,-5.52
2022-12-16T19:20:00.971Z,-5.54
2022-12-16T19:25:23.438Z,-5.59
2022-12-16T19:30:45.481Z,-5.59
2022-12-16T19:36:07.634Z,-5.62
2022-12-16T19:41:34.708Z,-5.69
2022-12-16T19:46:56.953Z,-5.75
2022-12-16T19:52:19.015Z,-5.80
2022-12-16T19:57:41.464Z,-5.81
2022-12-16T20:03:04.027Z,-5.84
2022-12-16T20:08:26.690Z,-5.82
2022-12-16T20:13:48.536Z,-5.77
2022-12-16T20:19:10.891Z,-5.73
2022-12-16T20:24:33.146Z,-5.70
2022-12-16T20:29:56.463Z,-5.67
2022-12-16T20:35:19.092Z,-5.64
2022-12-16T20:40:41.451Z,-5.67
2022-12-16T20:46:03.497Z,-5.72
2022-12-16T20:51:27.025Z,-5.74
2022-12-16T20:56:49.336Z,-5.71
2022-12-16T21:02:31.742Z,-5.74
2022-12-16T21:07:54.022Z,-5.82
2022-12-16T21:13:16.582Z,-5.94
2022-12-16T21:18:38.530Z,-6.04
2022-12-16T21:24:00.474Z,-6.07
2022-12-16T21:29:22.936Z,-6.05
2022-12-16T21:34:44.786Z,-6.12
2022-12-16T21:40:07.143Z,-6.14
2022-12-16T21:45:29.807Z,-6.11
2022-12-16T21:50:52.057Z,-6.08
2022-12-16T21:56:15.439Z,-6.13
2022-12-16T22:01:40.945Z,-6.16
2022-12-16T22:07:03.429Z,-6.12
2022-12-16T22:12:26.303Z,-6.20
2022-12-16T22:17:53.021Z,-6.28
2022-12-16T22:23:37.034Z,-6.29
2022-12-16T22:28:59.280Z,-6.27
2022-12-16T22:34:21.638Z,-6.22
2022-12-16T22:39:45.094Z,-6.19
2022-12-16T22:45:26.229Z,-6.25
2022-12-16T22:50:50.520Z,-6.21
2022-12-16T22:56:14.210Z,-6.17
2022-12-16T23:01:38.517Z,-6.23
2022-12-16T23:07:00.660Z,-6.27
2022-12-16T23:12:23.847Z,-6.28
2022-12-16T23:17:46.093Z,-6.32
2022-12-16T23:23:08.043Z,-6.30
2022-12-16T23:28:29.889Z,-6.37
2022-12-16T23:33:52.346Z,-6.36
2022-12-16T23:39:14.398Z,-6.32
2022-12-16T23:44:36.551Z,-6.30
2022-12-16T23:49:58.905Z,-6.37
2022-12-16T23:55:21.159Z,-6.39
